Time;durP1;ratioP1;P1;durP2;ratioP2;P2;SDS_P1;SDS_P2;PMS_P1;PMS_P2;Temp;Humidity;BMP_temperature;BMP_pressure;BME280_temperature;BME280_humidity;BME280_pressure;Samples;Min_cycle;Max_cycle;Signal;HPM_P1;HPM_P2
2022/01/06 00:00:10;;;;;;;11.20;4.93;;;3.30;99.90;;;;;;4920714;29;20739;-82
2022/01/06 00:02:35;;;;;;;15.50;5.15;;;4.30;99.90;;;;;;4934118;29;20654;-82
2022/01/06 00:05:02;;;;;;;12.93;8.13;;;4.40;99.90;;;;;;4923911;29;20230;-82
2022/01/06 00:07:29;;;;;;;12.88;4.85;;;4.20;99.90;;;;;;4941267;29;20192;-83
2022/01/06 00:09:55;;;;;;;6.10;4.78;;;4.30;99.90;;;;;;4916498;29;20306;-82
2022/01/06 00:12:26;;;;;;;8.30;5.97;;;4.70;99.90;;;;;;4924129;29;20183;-82
2022/01/06 00:15:03;;;;;;;11.38;5.07;;;4.50;99.90;;;;;;4936946;29;20205;-82
2022/01/06 00:17:43;;;;;;;16.08;4.90;;;4.30;99.90;;;;;;4941044;29;20222;-82
2022/01/06 00:23:25;;;;;;;9.00;5.35;;;4.50;99.90;;;;;;4942028;29;20292;-82
2022/01/06 00:25:51;;;;;;;7.65;5.28;;;4.40;99.90;;;;;;4948331;28;20191;-83
2022/01/06 00:28:18;;;;;;;9.88;4.88;;;4.10;99.90;;;;;;4944127;29;20552;-83
2022/01/06 00:30:44;;;;;;;14.77;6.40;;;4.40;99.90;;;;;;4939689;29;20198;-83
2022/01/06 00:33:10;;;;;;;10.70;5.53;;;4.40;99.90;;;;;;4940053;29;20195;-82
2022/01/06 00:35:36;;;;;;;11.40;5.77;;;4.30;99.90;;;;;;4940972;29;20467;-82
2022/01/06 00:38:01;;;;;;;13.17;4.03;;;4.20;99.90;;;;;;4946170;29;20222;-82
2022/01/06 00:40:27;;;;;;;11.70;4.67;;;4.10;99.90;;;;;;4947239;28;20249;-82
2022/01/06 00:42:53;;;;;;;16.53;6.13;;;4.20;99.90;;;;;;4940810;29;20211;-82
2022/01/06 00:45:18;;;;;;;6.90;4.33;;;4.20;99.90;;;;;;4947674;28;20277;-82
2022/01/06 00:47:44;;;;;;;15.70;4.80;;;4.10;99.90;;;;;;4938631;29;20559;-82
2022/01/06 00:50:10;;;;;;;23.15;5.50;;;4.30;99.90;;;;;;4925183;29;20294;-82
2022/01/06 00:52:36;;;;;;;13.33;3.90;;;4.20;99.90;;;;;;4943237;29;20751;-82
2022/01/06 00:55:03;;;;;;;16.52;5.40;;;4.20;99.90;;;;;;4942740;29;20293;-82
2022/01/06 00:57:29;;;;;;;8.20;4.53;;;4.30;99.90;;;;;;4924703;29;20560;-82
2022/01/06 00:59:54;;;;;;;9.97;4.73;;;3.70;99.90;;;;;;4943140;29;20194;-82
2022/01/06 01:02:20;;;;;;;17.83;5.73;;;4.90;99.90;;;;;;4921730;29;20243;-83
2022/01/06 01:04:45;;;;;;;18.97;5.07;;;4.10;99.90;;;;;;4930236;28;20272;-83
2022/01/06 01:07:11;;;;;;;11.57;4.50;;;3.70;99.90;;;;;;4943892;29;20180;-83
2022/01/06 01:09:37;;;;;;;15.47;4.90;;;3.90;99.90;;;;;;4946027;29;20225;-83
2022/01/06 01:12:04;;;;;;;12.60;5.60;;;4.20;99.90;;;;;;4943394;29;20242;-82
2022/01/06 01:14:33;;;;;;;13.23;6.35;;;4.00;99.90;;;;;;4946248;29;20182;-82
2022/01/06 01:17:01;;;;;;;13.27;5.03;;;3.80;99.90;;;;;;4937944;28;20201;-82
2022/01/06 01:19:30;;;;;;;16.65;6.15;;;3.70;99.90;;;;;;4946459;29;20230;-82
2022/01/06 01:21:57;;;;;;;13.02;5.60;;;5.10;99.90;;;;;;4947149;29;20210;-83
2022/01/06 01:24:23;;;;;;;9.75;4.80;;;3.60;99.90;;;;;;4943756;28;20218;-83
2022/01/06 01:26:49;;;;;;;20.67;5.40;;;3.70;99.90;;;;;;4947431;28;20195;-82
2022/01/06 01:29:18;;;;;;;11.15;4.53;;;3.80;99.90;;;;;;4942744;29;20258;-82
2022/01/06 01:31:48;;;;;;;16.15;4.93;;;4.20;99.90;;;;;;4937178;29;20282;-83
2022/01/06 01:34:20;;;;;;;11.90;4.65;;;3.20;99.90;;;;;;4944984;29;20190;-82
2022/01/06 01:36:45;;;;;;;11.55;4.88;;;3.40;99.90;;;;;;4933293;29;20198;-84
2022/01/06 01:39:11;;;;;;;9.23;4.50;;;3.40;99.90;;;;;;4922033;28;20178;-83
2022/01/06 01:41:37;;;;;;;7.43;4.60;;;3.50;99.90;;;;;;4925523;29;20684;-83
2022/01/06 01:44:05;;;;;;;11.20;5.00;;;3.50;99.90;;;;;;4932208;29;20202;-83
2022/01/06 01:46:41;;;;;;;6.07;4.55;;;3.40;99.90;;;;;;4921871;29;20219;-82
2022/01/06 01:51:41;;;;;;;17.45;4.55;;;3.40;99.90;;;;;;4952271;28;20218;-83
2022/01/06 01:54:09;;;;;;;13.25;4.93;;;3.40;99.90;;;;;;4945236;28;20663;-82
2022/01/06 01:56:35;;;;;;;10.45;5.00;;;3.20;99.90;;;;;;4939281;28;20226;-83
2022/01/06 01:59:01;;;;;;;29.50;6.28;;;3.70;99.90;;;;;;4930410;29;20201;-84
2022/01/06 02:01:30;;;;;;;13.95;5.05;;;3.60;99.90;;;;;;4946897;29;20679;-85
2022/01/06 02:03:55;;;;;;;12.10;4.50;;;4.60;99.90;;;;;;4941863;29;20280;-82
2022/01/06 02:06:22;;;;;;;10.30;4.80;;;3.60;99.90;;;;;;4936712;29;20817;-82
2022/01/06 02:08:48;;;;;;;14.07;4.45;;;3.50;99.90;;;;;;4941469;29;20194;-83
2022/01/06 02:11:13;;;;;;;9.43;4.50;;;4.30;99.90;;;;;;4933666;29;20185;-82
2022/01/06 02:13:46;;;;;;;12.50;4.90;;;3.40;99.90;;;;;;4926500;28;20187;-82
2022/01/06 02:16:13;;;;;;;11.50;4.45;;;3.50;99.90;;;;;;4935399;29;20204;-82
2022/01/06 02:18:38;;;;;;;16.58;4.90;;;3.30;99.90;;;;;;4937048;29;20731;-83
2022/01/06 02:21:04;;;;;;;12.17;4.90;;;3.50;99.90;;;;;;4940537;29;20274;-82
2022/01/06 02:23:29;;;;;;;10.10;5.53;;;3.50;99.90;;;;;;4925234;29;20199;-82
2022/01/06 02:25:55;;;;;;;7.87;3.53;;;3.50;99.90;;;;;;4943177;29;20569;-82
2022/01/06 02:28:24;;;;;;;15.53;4.93;;;3.70;99.90;;;;;;4941165;29;20210;-83
2022/01/06 02:30:51;;;;;;;13.68;4.45;;;3.60;99.90;;;;;;4940374;29;20391;-82
2022/01/06 02:33:42;;;;;;;11.32;4.05;;;4.30;99.90;;;;;;4942752;29;20194;-84
2022/01/06 02:36:08;;;;;;;12.38;4.15;;;3.60;99.90;;;;;;4944218;28;20191;-85
2022/01/06 02:38:34;;;;;;;8.90;4.17;;;;;;;;;;4942794;28;20182;-82
2022/01/06 02:41:01;;;;;;;8.25;3.90;;;;;;;;;;4921672;29;20669;-83
2022/01/06 02:43:29;;;;;;;9.52;4.35;;;;;;;;;;4938422;29;20214;-83
2022/01/06 02:45:55;;;;;;;14.70;4.72;;;3.50;99.90;;;;;;4924863;29;20621;-82
2022/01/06 02:54:38;;;;;;;9.57;5.00;;;3.70;99.90;;;;;;5005582;28;20290;-83
2022/01/06 02:57:04;;;;;;;15.40;4.23;;;3.60;99.90;;;;;;5007982;28;20173;-84
2022/01/06 02:59:30;;;;;;;14.30;4.90;;;3.60;99.90;;;;;;4990027;28;20201;-84
2022/01/06 03:01:55;;;;;;;13.07;4.10;;;3.80;99.90;;;;;;5017042;28;20231;-83
2022/01/06 03:04:23;;;;;;;14.67;4.20;;;4.70;99.90;;;;;;5019060;28;20199;-83
2022/01/06 03:06:49;;;;;;;12.30;4.50;;;3.70;99.90;;;;;;5026690;28;20617;-83
2022/01/06 03:09:15;;;;;;;6.57;3.03;;;3.30;99.90;;;;;;5016645;28;20305;-84
2022/01/06 03:11:43;;;;;;;7.97;4.30;;;3.60;99.90;;;;;;5006429;28;20169;-84
2022/01/06 03:14:09;;;;;;;10.82;4.78;;;4.30;99.90;;;;;;5012549;28;20441;-85
2022/01/06 03:16:34;;;;;;;12.23;4.37;;;3.50;99.90;;;;;;5008424;28;20573;-84
2022/01/06 03:19:00;;;;;;;9.30;4.40;;;3.70;99.90;;;;;;5018303;28;20541;-85
2022/01/06 03:21:26;;;;;;;11.13;4.27;;;3.70;99.90;;;;;;4988573;28;20201;-85
2022/01/06 03:23:51;;;;;;;4.60;2.60;;;3.90;99.90;;;;;;4992207;28;20601;-84
2022/01/06 03:26:17;;;;;;;7.47;3.83;;;4.20;99.90;;;;;;5026338;28;20164;-83
2022/01/06 03:28:43;;;;;;;10.73;3.50;;;3.70;99.90;;;;;;5002574;28;20617;-83
2022/01/06 03:31:08;;;;;;;15.13;3.50;;;5.70;99.90;;;;;;5006657;28;20575;-85
2022/01/06 03:33:34;;;;;;;12.23;4.13;;;3.80;99.90;;;;;;5015615;28;20570;-84
2022/01/06 03:35:59;;;;;;;6.90;3.40;;;4.10;99.90;;;;;;5034254;28;20205;-84
2022/01/06 03:38:25;;;;;;;16.03;3.90;;;5.10;99.90;;;;;;5024489;28;20789;-84
2022/01/06 03:40:51;;;;;;;7.00;3.50;;;3.90;99.90;;;;;;4995116;28;20195;-84
2022/01/06 03:43:17;;;;;;;22.80;4.10;;;;;;;;;;5015016;28;20250;-85
2022/01/06 03:45:42;;;;;;;10.57;3.47;;;3.00;99.90;;;;;;5035563;28;20295;-84
2022/01/06 03:48:08;;;;;;;10.33;3.20;;;3.30;99.90;;;;;;5012936;28;20756;-85
2022/01/06 03:50:33;;;;;;;8.10;3.40;;;3.80;99.90;;;;;;5022137;28;20200;-84
2022/01/06 03:52:59;;;;;;;14.00;3.20;;;3.60;99.90;;;;;;5011282;28;20243;-84
2022/01/06 03:55:28;;;;;;;11.63;4.67;;;3.40;99.90;;;;;;5027317;28;20421;-83
2022/01/06 03:57:53;;;;;;;10.05;3.85;;;5.60;99.90;;;;;;5025989;28;20414;-83
2022/01/06 04:00:21;;;;;;;13.30;4.30;;;3.50;99.90;;;;;;5007852;28;20569;-84
2022/01/06 04:02:48;;;;;;;18.25;6.25;;;3.30;99.90;;;;;;5015107;28;20204;-84
2022/01/06 04:05:14;;;;;;;16.02;4.82;;;3.40;99.90;;;;;;5017336;28;20223;-85
2022/01/06 04:07:40;;;;;;;17.48;5.80;;;3.80;99.90;;;;;;5015928;28;20176;-84
2022/01/06 04:10:08;;;;;;;12.13;4.97;;;3.00;99.90;;;;;;4994965;28;20187;-83
2022/01/06 04:12:36;;;;;;;10.00;4.05;;;3.20;99.90;;;;;;5015075;28;20160;-84
2022/01/06 04:15:04;;;;;;;24.50;4.38;;;3.20;99.90;;;;;;5020012;28;20202;-84
2022/01/06 04:17:30;;;;;;;9.50;4.90;;;3.40;99.90;;;;;;5007330;28;20291;-84
2022/01/06 04:19:55;;;;;;;14.23;5.43;;;3.30;99.90;;;;;;4991855;28;20655;-84
2022/01/06 04:22:21;;;;;;;11.83;5.27;;;3.20;99.90;;;;;;5005514;28;20196;-85
2022/01/06 04:24:47;;;;;;;15.47;5.57;;;2.50;99.90;;;;;;4998970;28;20192;-85
2022/01/06 04:27:12;;;;;;;20.07;6.13;;;3.00;99.90;;;;;;5025714;28;20346;-85
2022/01/06 04:29:38;;;;;;;15.77;5.90;;;2.90;99.90;;;;;;4994290;28;20189;-85
2022/01/06 04:32:04;;;;;;;9.87;4.70;;;3.00;99.90;;;;;;4988120;28;20550;-84
2022/01/06 04:34:30;;;;;;;18.23;5.13;;;2.90;99.90;;;;;;4996627;28;20278;-85
2022/01/06 04:36:58;;;;;;;20.73;4.87;;;4.20;99.90;;;;;;5025089;28;20919;-85
2022/01/06 04:39:23;;;;;;;14.30;5.40;;;3.00;99.90;;;;;;5023466;28;20669;-85
2022/01/06 04:41:49;;;;;;;22.40;6.30;;;3.00;99.90;;;;;;5007695;28;20451;-85
2022/01/06 04:44:15;;;;;;;20.20;5.20;;;3.80;99.90;;;;;;5015856;28;20496;-85
2022/01/06 04:46:40;;;;;;;9.77;3.50;;;3.10;99.90;;;;;;4987511;28;20587;-84
2022/01/06 04:49:06;;;;;;;13.20;3.70;;;2.60;99.90;;;;;;4993267;28;20200;-84
2022/01/06 04:51:35;;;;;;;13.53;5.97;;;2.20;99.90;;;;;;5021200;28;20212;-85
2022/01/06 04:54:19;;;;;;;13.35;4.25;;;2.60;99.90;;;;;;4997947;28;20216;-84
2022/01/06 04:56:45;;;;;;;13.70;3.88;;;2.50;99.90;;;;;;5003146;28;20199;-84
2022/01/06 04:59:13;;;;;;;16.97;4.67;;;2.20;99.90;;;;;;5003480;28;20185;-84
2022/01/06 05:01:38;;;;;;;18.67;4.03;;;2.50;99.90;;;;;;5009683;28;20213;-84
2022/01/06 05:04:05;;;;;;;18.13;5.20;;;4.70;99.90;;;;;;4995330;28;20193;-84
2022/01/06 05:06:30;;;;;;;12.32;4.35;;;2.40;99.90;;;;;;5020773;28;20180;-85
2022/01/06 05:08:56;;;;;;;9.33;4.20;;;2.40;99.90;;;;;;5023024;28;20538;-85
2022/01/06 05:11:22;;;;;;;19.87;4.87;;;2.60;99.90;;;;;;5027101;28;20641;-85
2022/01/06 05:13:48;;;;;;;20.40;5.20;;;2.00;99.90;;;;;;5019591;28;20196;-84
2022/01/06 05:16:14;;;;;;;12.18;4.95;;;2.20;99.90;;;;;;5015536;28;20859;-85
2022/01/06 05:18:40;;;;;;;11.07;6.17;;;2.60;99.90;;;;;;5000724;28;20195;-84
2022/01/06 05:21:06;;;;;;;17.20;4.33;;;2.20;99.90;;;;;;5014797;28;20180;-85
2022/01/06 05:23:32;;;;;;;8.18;4.32;;;2.60;99.90;;;;;;5016349;28;20216;-85
2022/01/06 05:25:58;;;;;;;16.00;4.40;;;2.20;99.90;;;;;;5005665;28;20179;-85
2022/01/06 05:28:24;;;;;;;22.92;5.97;;;2.10;99.90;;;;;;4995588;28;20782;-85
2022/01/06 05:30:49;;;;;;;12.93;5.13;;;2.00;99.90;;;;;;4999968;28;20649;-84
2022/01/06 05:33:16;;;;;;;8.80;3.83;;;2.00;99.90;;;;;;5019960;28;20501;-84
2022/01/06 05:35:41;;;;;;;8.40;3.42;;;2.00;99.90;;;;;;4993307;28;20330;-83
2022/01/06 05:38:07;;;;;;;14.00;4.20;;;2.10;99.90;;;;;;4995512;28;20267;-84
2022/01/06 05:40:36;;;;;;;15.50;4.47;;;;;;;;;;5014061;28;20192;-85
2022/01/06 05:43:02;;;;;;;20.25;5.93;;;1.10;99.90;;;;;;4999091;28;20478;-82
2022/01/06 05:45:29;;;;;;;19.33;4.90;;;1.90;99.90;;;;;;5010057;28;20645;-84
2022/01/06 05:47:54;;;;;;;16.92;3.97;;;2.10;99.90;;;;;;5008524;28;20560;-84
2022/01/06 05:50:20;;;;;;;14.73;4.77;;;2.00;99.90;;;;;;4997580;28;20684;-85
2022/01/06 05:52:47;;;;;;;16.75;5.70;;;2.10;99.90;;;;;;5020553;28;20441;-85
2022/01/06 05:55:13;;;;;;;15.15;4.38;;;4.00;99.90;;;;;;5019060;28;20194;-85
2022/01/06 05:57:39;;;;;;;12.65;4.53;;;4.90;99.90;;;;;;5020452;28;21079;-82
2022/01/06 06:00:06;;;;;;;13.40;4.70;;;2.10;99.90;;;;;;4998213;28;20193;-85
2022/01/06 06:02:35;;;;;;;16.13;4.15;;;2.20;99.90;;;;;;4997182;28;20275;-81
2022/01/06 06:05:04;;;;;;;8.07;4.28;;;1.90;99.90;;;;;;5007391;28;20276;-85
2022/01/06 06:07:30;;;;;;;10.15;3.85;;;2.10;99.90;;;;;;5023520;28;20543;-85
2022/01/06 06:09:56;;;;;;;15.70;4.90;;;2.10;99.90;;;;;;5001157;28;20199;-80
2022/01/06 06:12:22;;;;;;;8.10;4.10;;;2.00;99.90;;;;;;5014708;28;20279;-84
2022/01/06 06:14:47;;;;;;;8.67;4.10;;;2.10;99.90;;;;;;5018596;28;20188;-86
2022/01/06 06:17:13;;;;;;;11.23;4.23;;;2.20;99.90;;;;;;5000449;28;20247;-84
2022/01/06 06:19:38;;;;;;;11.10;4.30;;;2.10;99.90;;;;;;4646961;28;10000243;-84
2022/01/06 06:22:04;;;;;;;10.67;4.50;;;1.70;99.90;;;;;;5024427;28;20215;-84
2022/01/06 06:24:30;;;;;;;5.63;4.07;;;2.20;99.90;;;;;;5007925;28;20609;-84
2022/01/06 06:26:56;;;;;;;18.50;3.73;;;;;;;;;;4993666;28;20550;-83
2022/01/06 06:29:22;;;;;;;19.73;5.13;;;;;;;;;;5015087;28;20192;-83
2022/01/06 06:31:48;;;;;;;10.45;3.28;;;;;;;;;;5016979;28;20609;-84
2022/01/06 06:34:17;;;;;;;20.20;5.20;;;2.20;99.90;;;;;;5019923;28;20283;-84
2022/01/06 06:36:42;;;;;;;15.90;4.25;;;2.00;99.90;;;;;;5013037;28;20431;-80
2022/01/06 06:39:08;;;;;;;27.00;5.63;;;;;;;;;;5019190;28;20699;-85
2022/01/06 06:41:34;;;;;;;15.57;6.68;;;2.20;99.90;;;;;;5004196;28;20278;-84
2022/01/06 06:44:00;;;;;;;22.20;7.80;;;2.00;99.90;;;;;;4990743;28;20657;-83
2022/01/06 06:46:25;;;;;;;15.97;6.27;;;1.90;99.90;;;;;;5007015;28;20177;-84
2022/01/06 06:48:51;;;;;;;13.40;5.07;;;2.20;99.90;;;;;;4995043;28;20199;-82
2022/01/06 06:51:17;;;;;;;23.92;8.35;;;4.50;99.90;;;;;;5011659;28;20179;-83
2022/01/06 06:53:43;;;;;;;15.70;5.20;;;1.40;99.90;;;;;;5012983;28;20215;-84
2022/01/06 06:56:09;;;;;;;11.37;4.87;;;;;;;;;;5002656;28;20184;-84
2022/01/06 06:58:35;;;;;;;11.50;5.10;;;1.70;99.90;;;;;;5003652;28;20458;-84
2022/01/06 07:01:01;;;;;;;17.57;7.97;;;1.00;99.90;;;;;;5005942;28;20218;-82
2022/01/06 07:03:26;;;;;;;6.13;4.33;;;1.80;99.90;;;;;;5007331;28;20294;-83
2022/01/06 07:05:52;;;;;;;12.27;4.50;;;1.70;99.90;;;;;;5006053;28;20172;-83
2022/01/06 07:08:18;;;;;;;11.80;5.27;;;1.60;99.90;;;;;;5011002;28;20200;-83
2022/01/06 07:10:44;;;;;;;18.83;4.90;;;1.50;99.90;;;;;;5002398;28;20247;-84
2022/01/06 07:13:09;;;;;;;12.30;5.60;;;1.80;99.90;;;;;;4995283;28;20498;-82
2022/01/06 07:15:41;;;;;;;17.97;4.63;;;1.90;99.90;;;;;;5018140;28;20173;-81
2022/01/06 07:18:07;;;;;;;23.00;5.70;;;1.90;99.90;;;;;;4995680;28;20191;-84
2022/01/06 07:20:32;;;;;;;21.90;6.00;;;2.00;99.90;;;;;;5016109;28;20660;-84
2022/01/06 07:22:58;;;;;;;15.60;4.83;;;2.00;99.90;;;;;;5019509;28;20470;-83
2022/01/06 07:25:24;;;;;;;5.90;3.60;;;1.30;99.90;;;;;;5001538;28;20183;-81
2022/01/06 07:27:50;;;;;;;7.88;4.53;;;2.50;99.90;;;;;;5013114;28;20657;-80
2022/01/06 07:30:16;;;;;;;5.80;3.83;;;1.90;99.90;;;;;;5005001;28;20283;-80
2022/01/06 07:32:44;;;;;;;9.10;4.60;;;2.10;99.90;;;;;;5006878;28;20195;-79
2022/01/06 07:35:09;;;;;;;9.45;4.45;;;2.30;99.90;;;;;;5015966;28;20203;-79
2022/01/06 07:37:35;;;;;;;6.90;5.00;;;1.80;99.90;;;;;;5019327;28;20203;-79
2022/01/06 07:40:00;;;;;;;7.57;5.23;;;2.00;99.90;;;;;;5010033;28;20227;-79
2022/01/06 07:42:26;;;;;;;13.47;7.10;;;4.10;99.90;;;;;;5012387;28;20219;-79
2022/01/06 07:44:51;;;;;;;16.47;6.57;;;2.10;99.90;;;;;;4999699;28;20184;-79
2022/01/06 07:47:18;;;;;;;14.30;5.47;;;1.90;99.90;;;;;;5020370;28;20657;-81
2022/01/06 07:49:44;;;;;;;14.85;6.00;;;2.10;99.90;;;;;;5009953;28;20219;-79
2022/01/06 07:52:10;;;;;;;19.47;5.80;;;2.10;99.90;;;;;;4991544;28;20192;-82
2022/01/06 07:54:35;;;;;;;15.13;5.50;;;2.00;99.90;;;;;;5012988;28;20223;-79
2022/01/06 07:57:01;;;;;;;20.90;6.20;;;2.50;99.90;;;;;;5006869;28;20204;-80
2022/01/06 07:59:26;;;;;;;16.77;6.10;;;2.30;99.90;;;;;;5016226;28;20685;-81
2022/01/06 08:01:52;;;;;;;19.53;6.90;;;2.30;99.90;;;;;;5009316;28;20553;-80
2022/01/06 08:04:18;;;;;;;12.20;4.97;;;1.80;99.90;;;;;;5011077;28;20192;-80
2022/01/06 08:06:43;;;;;;;11.97;6.20;;;3.90;99.90;;;;;;5003066;28;20601;-79
2022/01/06 08:09:09;;;;;;;14.03;4.90;;;2.40;99.90;;;;;;5016442;28;20194;-79
2022/01/06 08:11:34;;;;;;;15.90;6.03;;;2.50;99.90;;;;;;5011217;28;20740;-78
2022/01/06 08:14:00;;;;;;;16.90;7.20;;;2.50;99.90;;;;;;5013081;28;20678;-81
2022/01/06 08:16:26;;;;;;;14.13;7.23;;;2.50;99.90;;;;;;5012813;28;20210;-81
2022/01/06 08:18:51;;;;;;;12.27;6.90;;;1.90;99.90;;;;;;5011254;28;20558;-84
2022/01/06 08:21:17;;;;;;;9.60;4.97;;;2.60;99.90;;;;;;5010975;28;20200;-85
2022/01/06 08:23:42;;;;;;;13.47;5.43;;;2.30;99.90;;;;;;5014472;28;20187;-83
2022/01/06 08:26:08;;;;;;;11.90;5.00;;;5.50;99.90;;;;;;5018760;28;20461;-84
2022/01/06 08:28:34;;;;;;;13.13;5.73;;;2.60;99.90;;;;;;5013110;28;20286;-85
2022/01/06 08:30:59;;;;;;;17.17;7.57;;;2.90;99.90;;;;;;4988501;28;20291;-84
2022/01/06 08:33:26;;;;;;;18.77;7.57;;;2.60;99.90;;;;;;5010896;28;20196;-85
2022/01/06 08:35:52;;;;;;;15.07;9.20;;;2.70;99.90;;;;;;5008409;28;20661;-85
2022/01/06 08:38:17;;;;;;;17.33;6.20;;;3.00;99.90;;;;;;5014210;28;20190;-85
2022/01/06 08:40:43;;;;;;;11.10;6.23;;;2.70;99.90;;;;;;5019737;28;20219;-84
2022/01/06 08:43:08;;;;;;;17.70;5.93;;;2.70;99.90;;;;;;5004251;28;20318;-82
2022/01/06 08:45:34;;;;;;;9.60;5.10;;;2.70;99.90;;;;;;5013670;28;20189;-82
2022/01/06 08:48:01;;;;;;;18.60;6.37;;;2.90;99.90;;;;;;5020786;28;20180;-82
2022/01/06 08:50:27;;;;;;;18.42;6.15;;;2.50;99.90;;;;;;5020904;28;20912;-82
2022/01/06 08:52:53;;;;;;;9.55;5.70;;;2.70;99.90;;;;;;5015432;28;20307;-81
2022/01/06 08:55:18;;;;;;;6.43;4.70;;;2.50;99.90;;;;;;4992595;28;20282;-81
2022/01/06 08:57:44;;;;;;;7.00;5.13;;;2.80;99.90;;;;;;5009358;28;20232;-82
2022/01/06 09:00:11;;;;;;;15.23;6.60;;;2.40;99.90;;;;;;5017137;28;20227;-82
2022/01/06 09:02:37;;;;;;;17.10;7.30;;;2.80;99.90;;;;;;5013095;28;20219;-82
2022/01/06 09:05:06;;;;;;;13.85;8.73;;;2.80;99.90;;;;;;5014370;28;20197;-82
2022/01/06 09:07:35;;;;;;;19.08;8.35;;;3.10;99.90;;;;;;5013179;28;20192;-83
2022/01/06 09:10:02;;;;;;;14.07;7.13;;;2.90;99.90;;;;;;5015405;28;20185;-81
2022/01/06 09:12:28;;;;;;;20.27;7.43;;;2.90;99.90;;;;;;5014927;28;20203;-82
2022/01/06 09:14:54;;;;;;;10.27;7.33;;;2.40;99.90;;;;;;5009575;28;20544;-80
2022/01/06 09:17:19;;;;;;;17.60;9.80;;;5.10;99.90;;;;;;4997966;28;20488;-82
2022/01/06 09:19:45;;;;;;;19.70;7.07;;;3.50;99.90;;;;;;5009807;28;20448;-81
2022/01/06 09:22:10;;;;;;;11.23;5.60;;;3.60;99.90;;;;;;5005155;28;20305;-81
2022/01/06 09:24:36;;;;;;;7.50;5.00;;;4.20;99.90;;;;;;5016734;28;20563;-81
2022/01/06 09:27:02;;;;;;;17.27;6.80;;;3.50;99.90;;;;;;5009888;28;20259;-79
2022/01/06 09:29:28;;;;;;;13.30;6.50;;;3.80;99.90;;;;;;5008677;28;20567;-80
2022/01/06 09:31:53;;;;;;;12.87;6.57;;;4.00;99.90;;;;;;5012440;28;20728;-80
2022/01/06 09:34:19;;;;;;;16.60;7.67;;;3.90;99.90;;;;;;5019357;28;20185;-80
2022/01/06 09:36:45;;;;;;;14.63;5.97;;;4.00;99.90;;;;;;5019300;28;20204;-80
2022/01/06 09:39:11;;;;;;;21.87;8.40;;;3.80;99.90;;;;;;5016386;28;20664;-81
2022/01/06 09:41:37;;;;;;;11.10;6.15;;;4.40;99.90;;;;;;5010130;28;20207;-81
2022/01/06 09:44:09;;;;;;;12.60;5.80;;;5.00;99.90;;;;;;5020750;28;20306;-82
2022/01/06 09:46:35;;;;;;;16.42;6.07;;;5.60;99.90;;;;;;5021811;28;20202;-81
2022/01/06 09:49:00;;;;;;;11.73;4.20;;;6.50;99.90;;;;;;5017599;28;20200;-81
2022/01/06 09:51:28;;;;;;;6.67;3.83;;;7.00;99.90;;;;;;5006594;28;20203;-80
2022/01/06 09:53:57;;;;;;;9.53;4.97;;;7.70;99.90;;;;;;5016866;28;20961;-80
2022/01/06 09:56:24;;;;;;;7.25;4.40;;;8.20;99.90;;;;;;5019119;28;20485;-81
2022/01/06 09:58:49;;;;;;;6.53;3.80;;;8.50;99.90;;;;;;5015882;28;20185;-80
2022/01/06 10:01:15;;;;;;;6.13;4.37;;;8.90;99.90;;;;;;5015351;28;20462;-81
2022/01/06 10:03:45;;;;;;;10.37;4.00;;;9.00;99.90;;;;;;5027755;28;20211;-81
2022/01/06 10:06:16;;;;;;;11.20;3.87;;;9.70;99.90;;;;;;4999161;28;20199;-77
2022/01/06 10:08:50;;;;;;;5.87;4.87;;;9.00;99.90;;;;;;5004562;28;20507;-82
2022/01/06 10:11:19;;;;;;;10.53;3.90;;;8.70;99.90;;;;;;5004404;28;20793;-82
2022/01/06 10:13:56;;;;;;;5.07;4.07;;;8.60;99.90;;;;;;5013214;28;21149;-84
2022/01/06 10:16:24;;;;;;;11.57;4.90;;;9.20;99.90;;;;;;5024479;28;20509;-84
2022/01/06 10:18:59;;;;;;;5.83;4.50;;;8.40;99.90;;;;;;5014311;28;20433;-84
2022/01/06 10:21:28;;;;;;;7.38;4.57;;;8.80;99.90;;;;;;4992958;28;20423;-81
2022/01/06 10:24:08;;;;;;;6.43;3.80;;;8.50;99.90;;;;;;5015873;28;20238;-83
2022/01/06 10:26:35;;;;;;;6.80;3.75;;;8.60;99.90;;;;;;5017751;28;20484;-83
2022/01/06 10:29:02;;;;;;;10.30;4.65;;;9.70;99.90;;;;;;4996986;28;20196;-83
2022/01/06 10:31:30;;;;;;;11.47;5.03;;;8.30;99.90;;;;;;5018327;28;20197;-83
2022/01/06 10:33:56;;;;;;;5.10;4.45;;;8.40;99.90;;;;;;5015799;28;20538;-81
2022/01/06 10:36:32;;;;;;;10.68;5.15;;;9.80;99.90;;;;;;5011201;28;20224;-83
2022/01/06 10:39:02;;;;;;;9.20;4.32;;;6.80;99.90;;;;;;5002006;28;20194;-84
2022/01/06 10:41:28;;;;;;;14.40;5.10;;;7.60;99.90;;;;;;5024659;28;20391;-82
2022/01/06 10:43:56;;;;;;;14.30;4.80;;;7.40;99.90;;;;;;5024120;28;20865;-82
2022/01/06 10:46:37;;;;;;;14.07;5.45;;;7.60;99.90;;;;;;5002074;28;20580;-83
2022/01/06 10:49:10;;;;;;;8.10;4.27;;;7.00;99.90;;;;;;5006515;28;20187;-84
2022/01/06 10:51:47;;;;;;;7.82;5.32;;;6.80;99.90;;;;;;5013853;28;20924;-84
2022/01/06 10:54:21;;;;;;;12.25;5.05;;;7.00;99.90;;;;;;4329294;28;10022582;-83
2022/01/06 10:57:12;;;;;;;8.88;5.00;;;7.40;99.90;;;;;;5018448;28;20290;-84
2022/01/06 10:59:38;;;;;;;8.88;4.88;;;7.70;99.90;;;;;;5018078;28;20196;-83
2022/01/06 11:02:05;;;;;;;6.55;4.43;;;10.20;99.90;;;;;;5023107;28;20238;-84
2022/01/06 11:04:31;;;;;;;11.27;5.40;;;9.70;99.90;;;;;;5012997;28;20231;-82
2022/01/06 11:07:00;;;;;;;11.57;4.85;;;7.70;99.90;;;;;;5013751;28;20178;-84
2022/01/06 11:09:30;;;;;;;8.63;6.10;;;8.30;99.90;;;;;;5008274;28;20605;-86
2022/01/06 11:14:32;;;;;;;11.33;6.07;;;8.50;99.90;;;;;;5011839;28;20428;-84
2022/01/06 11:16:58;;;;;;;8.03;6.10;;;8.50;99.90;;;;;;5009634;28;20415;-83
2022/01/06 11:19:24;;;;;;;14.00;6.40;;;9.20;99.90;;;;;;4987876;28;20525;-84
2022/01/06 11:21:54;;;;;;;9.17;5.83;;;9.50;99.90;;;;;;4998133;28;20244;-85
2022/01/06 11:24:24;;;;;;;14.27;6.70;;;11.50;99.90;;;;;;5003910;28;20430;-84
2022/01/06 11:27:02;;;;;;;14.97;7.17;;;8.90;99.90;;;;;;5016986;28;20510;-83
2022/01/06 11:29:34;;;;;;;15.57;8.63;;;8.60;99.90;;;;;;5001139;28;20503;-82
2022/01/06 11:32:02;;;;;;;15.18;8.88;;;8.30;99.90;;;;;;5009757;28;20735;-83
2022/01/06 11:34:29;;;;;;;13.70;8.50;;;7.20;99.90;;;;;;4997980;28;20179;-83
2022/01/06 11:36:56;;;;;;;13.48;7.60;;;7.00;99.90;;;;;;5010742;28;20439;-83
2022/01/06 11:39:23;;;;;;;9.35;8.07;;;7.00;99.90;;;;;;5000038;28;20193;-82
2022/01/06 11:41:51;;;;;;;15.38;8.07;;;6.90;99.90;;;;;;5001179;28;20732;-79
2022/01/06 11:44:18;;;;;;;12.68;8.55;;;6.70;99.90;;;;;;5016173;28;20239;-83
2022/01/06 11:46:46;;;;;;;17.42;10.82;;;6.80;99.90;;;;;;5009915;28;20200;-82
2022/01/06 11:49:28;;;;;;;15.00;9.23;;;6.70;99.90;;;;;;5012985;28;20211;-82
2022/01/06 11:52:13;;;;;;;11.47;7.27;;;9.10;99.90;;;;;;4990029;28;20195;-83
2022/01/06 11:54:49;;;;;;;19.07;8.30;;;9.80;99.90;;;;;;5021542;28;20726;-82
2022/01/06 11:57:25;;;;;;;8.15;7.38;;;10.50;99.90;;;;;;5012191;28;20492;-86
2022/01/06 11:59:51;;;;;;;10.30;8.07;;;10.90;99.90;;;;;;5016023;28;20307;-84
2022/01/06 12:02:21;;;;;;;11.37;8.70;;;9.20;99.90;;;;;;5026355;28;20561;-83
2022/01/06 12:04:59;;;;;;;13.77;9.13;;;11.90;99.90;;;;;;5026555;28;20180;-85
2022/01/06 12:07:26;;;;;;;14.50;10.10;;;10.70;99.90;;;;;;5009330;28;20447;-83
2022/01/06 12:10:06;;;;;;;15.53;12.13;;;11.00;99.90;;;;;;4997252;28;20763;-81
2022/01/06 12:12:36;;;;;;;13.60;11.43;;;10.50;99.90;;;;;;5023086;28;20449;-89
2022/01/06 12:15:25;;;;;;;24.57;13.63;;;9.80;99.90;;;;;;5016958;28;20408;-83
2022/01/06 12:17:54;;;;;;;28.40;14.90;;;9.50;99.90;;;;;;5024437;28;20801;-85
2022/01/06 12:20:24;;;;;;;27.85;15.25;;;11.10;99.90;;;;;;5022476;28;20439;-85
2022/01/06 12:22:50;;;;;;;20.05;16.25;;;8.50;99.90;;;;;;5034307;28;20210;-89
2022/01/06 12:25:20;;;;;;;22.03;14.73;;;10.80;99.90;;;;;;5007250;28;20644;-86
2022/01/06 12:27:54;;;;;;;29.27;16.63;;;11.00;99.90;;;;;;5009040;28;20806;-88
2022/01/06 12:30:21;;;;;;;24.25;16.10;;;7.50;99.90;;;;;;4999782;28;20185;-88
2022/01/06 12:33:01;;;;;;;31.33;17.50;;;9.90;99.90;;;;;;5018191;28;20192;-88
2022/01/06 12:35:55;;;;;;;25.37;17.73;;;10.80;99.90;;;;;;5025816;28;20249;-87
2022/01/06 12:38:29;;;;;;;20.93;14.37;;;10.90;99.90;;;;;;5002267;28;20422;-87
2022/01/06 12:40:56;;;;;;;18.33;14.13;;;11.60;99.90;;;;;;5029021;28;20469;-86
2022/01/06 12:43:28;;;;;;;23.37;15.87;;;10.30;99.90;;;;;;5023465;28;20495;-85
2022/01/06 12:46:07;;;;;;;22.17;16.63;;;8.10;99.90;;;;;;5019520;28;20553;-85
2022/01/06 12:53:45;;;;;;;21.00;16.10;;;10.00;99.90;;;;;;5001311;28;20844;-89
2022/01/06 12:56:32;;;;;;;14.60;11.93;;;7.80;99.90;;;;;;4981249;28;20468;-88
2022/01/06 12:59:09;;;;;;;18.27;13.63;;;8.70;99.90;;;;;;4981650;28;20203;-87
2022/01/06 13:01:35;;;;;;;15.65;12.77;;;12.00;99.90;;;;;;4975018;28;20587;-90
2022/01/06 13:04:31;;;;;;;19.77;13.27;;;7.10;99.90;;;;;;4966823;28;20178;-92
2022/01/06 13:06:59;;;;;;;16.50;11.80;;;7.70;99.90;;;;;;4979069;28;20441;-90
2022/01/06 13:09:28;;;;;;;13.55;10.82;;;9.50;99.90;;;;;;4983088;28;20277;-87
2022/01/06 13:11:55;;;;;;;12.57;10.32;;;7.60;99.90;;;;;;4976485;28;20193;-86